Time;durP1;ratioP1;P1;durP2;ratioP2;P2;SDS_P1;SDS_P2;PMS_P1;PMS_P2;Temp;Humidity;BMP_temperature;BMP_pressure;BME280_temperature;BME280_humidity;BME280_pressure;Samples;Min_cycle;Max_cycle;Signal;HPM_P1;HPM_P2
2023/04/20 00:01:55;;;;;;;103.15;28.25;;;;;;;;;;4985526;28;20129;-69
2023/04/20 00:04:22;;;;;;;66.90;24.60;;;;;;;;;;4990858;28;20121;-70
2023/04/20 00:06:50;;;;;;;165.85;35.08;;;;;;;;;;4990838;28;20058;-69
2023/04/20 00:09:17;;;;;;;124.35;31.98;;;;;;;;;;4989425;28;20054;-69
2023/04/20 00:11:44;;;;;;;68.55;24.20;;;;;;;;;;5001035;28;20042;-72
2023/04/20 00:14:11;;;;;;;96.93;28.52;;;;;;;;;;4983656;28;20137;-72
2023/04/20 00:16:37;;;;;;;136.35;33.05;;;;;;;;;;4998299;28;20042;-71
2023/04/20 00:19:04;;;;;;;58.83;25.55;;;;;;;;;;5000633;28;20128;-72
2023/04/20 00:21:30;;;;;;;71.68;24.80;;;;;;;;;;4997245;28;20053;-75
2023/04/20 00:23:57;;;;;;;123.18;30.08;;;;;;;;;;5003602;28;20073;-71
2023/04/20 00:26:23;;;;;;;87.00;26.48;;;;;;;;;;4998689;28;20070;-69
2023/04/20 00:28:52;;;;;;;94.70;27.77;;;;;;;;;;5000623;28;20089;-71
2023/04/20 00:31:19;;;;;;;152.02;30.60;;;;;;;;;;4980390;28;20039;-71
2023/04/20 00:33:46;;;;;;;121.03;27.17;;;;;;;;;;4980581;28;20114;-71
2023/04/20 00:36:12;;;;;;;89.80;23.83;;;;;;;;;;4980509;28;20078;-69
2023/04/20 00:38:39;;;;;;;119.20;24.75;;;;;;;;;;4982097;28;20123;-71
2023/04/20 00:41:06;;;;;;;57.13;19.23;;;;;;;;;;5010087;28;20050;-72
2023/04/20 00:43:33;;;;;;;112.45;24.85;;;;;;;;;;5002195;28;20129;-69
2023/04/20 00:45:59;;;;;;;120.18;26.63;;;;;;;;;;5001180;28;20057;-70
2023/04/20 00:48:26;;;;;;;74.63;21.13;;;;;;;;;;5001663;28;20149;-70
2023/04/20 00:50:53;;;;;;;124.35;25.05;;;;;;;;;;5010261;28;20065;-71
2023/04/20 00:53:20;;;;;;;141.30;28.63;;;;;;;;;;5002072;28;20113;-70
2023/04/20 00:55:49;;;;;;;100.93;25.95;;;;;;;;;;5007542;28;20133;-71
2023/04/20 00:58:18;;;;;;;127.05;28.98;;;;;;;;;;5008477;28;20129;-70
2023/04/20 01:00:45;;;;;;;176.43;34.65;;;;;;;;;;5002159;28;20078;-71
2023/04/20 01:03:11;;;;;;;91.80;26.95;;;;;;;;;;5006455;28;20053;-71
2023/04/20 01:05:38;;;;;;;106.68;27.08;;;;;;;;;;5009104;28;20125;-70
2023/04/20 01:08:05;;;;;;;108.82;28.60;;;;;;;;;;5007732;28;20056;-70
2023/04/20 01:10:32;;;;;;;58.60;22.20;;;;;;;;;;5006198;28;20080;-70
2023/04/20 01:12:59;;;;;;;116.10;27.50;;;;;;;;;;5009438;28;20105;-69
2023/04/20 01:15:25;;;;;;;156.68;33.45;;;;;;;;;;5010301;28;20078;-70
2023/04/20 01:17:52;;;;;;;79.68;24.05;;;;;;;;;;5009533;28;20129;-70
2023/04/20 01:20:19;;;;;;;100.40;25.60;;;;;;;;;;5007081;28;20086;-71
2023/04/20 01:22:49;;;;;;;121.70;29.67;;;;;;;;;;5008525;28;20043;-69
2023/04/20 01:25:16;;;;;;;94.20;26.60;;;;;;;;;;5008520;28;20454;-70
2023/04/20 01:27:44;;;;;;;149.50;32.28;;;;;;;;;;5001880;28;20137;-70
2023/04/20 01:30:11;;;;;;;128.77;30.38;;;;;;;;;;5000424;28;20128;-70
2023/04/20 01:32:38;;;;;;;81.38;24.92;;;;;;;;;;5001090;28;20062;-69
2023/04/20 01:35:06;;;;;;;101.05;23.20;;;;;;;;;;4999686;28;20047;-70
2023/04/20 01:37:32;;;;;;;126.05;23.70;;;;;;;;;;5006460;28;20041;-69
2023/04/20 01:40:02;;;;;;;53.03;16.20;;;;;;;;;;5005981;28;20710;-71
2023/04/20 01:42:28;;;;;;;89.60;21.40;;;;;;;;;;4982146;28;20133;-70
2023/04/20 01:44:55;;;;;;;110.65;25.30;;;;;;;;;;5008590;28;20046;-70
2023/04/20 01:47:22;;;;;;;98.68;26.98;;;;;;;;;;5002251;28;20050;-70
2023/04/20 01:49:48;;;;;;;107.18;28.95;;;;;;;;;;5006749;28;20097;-70
2023/04/20 01:52:16;;;;;;;129.95;28.83;;;;;;;;;;5002912;28;20121;-72
2023/04/20 01:54:43;;;;;;;104.97;29.48;;;;;;;;;;5009989;28;20060;-71
2023/04/20 01:57:09;;;;;;;101.22;29.30;;;;;;;;;;5002113;28;20046;-74
2023/04/20 01:59:36;;;;;;;115.78;32.53;;;;;;;;;;5001005;28;20137;-71
2023/04/20 02:02:02;;;;;;;119.20;37.10;;;;;;;;;;4985828;23;20144;-65
2023/04/20 02:04:31;;;;;;;79.18;35.25;;;;;;;;;;4980378;28;20038;-65
2023/04/20 02:06:58;;;;;;;106.40;38.88;;;;;;;;;;4980157;28;20053;-66
2023/04/20 02:09:25;;;;;;;103.25;39.35;;;;;;;;;;4978651;28;20050;-66
2023/04/20 02:11:52;;;;;;;120.03;39.65;;;;;;;;;;4994634;28;20058;-66
2023/04/20 02:14:19;;;;;;;138.13;42.15;;;;;;;;;;4982274;28;20051;-66
2023/04/20 02:16:45;;;;;;;79.05;34.70;;;;;;;;;;4997877;28;20073;-67
2023/04/20 02:19:12;;;;;;;132.50;43.45;;;;;;;;;;4963225;28;20046;-67
2023/04/20 02:21:39;;;;;;;152.10;42.42;;;;;;;;;;4980646;28;20047;-66
2023/04/20 02:24:05;;;;;;;64.25;40.08;;;;;;;;;;4979965;28;20122;-66
2023/04/20 02:26:32;;;;;;;83.13;40.67;;;;;;;;;;4980067;28;20650;-66
2023/04/20 02:28:58;;;;;;;158.57;44.05;;;;;;;;;;4978979;28;20050;-65
2023/04/20 02:31:25;;;;;;;107.57;39.55;;;;;;;;;;4980302;28;20046;-69
2023/04/20 02:33:52;;;;;;;119.05;40.03;;;;;;;;;;4979176;28;20058;-68
2023/04/20 02:36:18;;;;;;;119.70;40.97;;;;;;;;;;4997968;28;20057;-67
2023/04/20 02:38:45;;;;;;;95.10;40.25;;;;;;;;;;4982334;28;20105;-68
2023/04/20 02:41:11;;;;;;;98.60;36.53;;;;;;;;;;4977487;28;20046;-68
2023/04/20 02:43:39;;;;;;;137.00;41.30;;;;;;;;;;4976996;28;20061;-68
2023/04/20 02:46:06;;;;;;;78.97;37.08;;;;;;;;;;4996114;28;20417;-67
2023/04/20 02:48:33;;;;;;;72.75;35.85;;;;;;;;;;4977115;28;20050;-69
2023/04/20 02:51:00;;;;;;;116.22;38.95;;;;;;;;;;4993554;28;20066;-70
2023/04/20 02:53:31;;;;;;;76.43;34.63;;;;;;;;;;4973058;28;20556;-69
2023/04/20 02:56:16;;;;;;;105.00;36.38;;;;;;;;;;4979620;28;20136;-68
2023/04/20 02:58:50;;;;;;;96.80;36.35;;;;;;;;;;4980551;28;20137;-66
2023/04/20 03:01:31;;;;;;;144.23;38.72;;;;;;;;;;4974334;28;20137;-71
2023/04/20 03:04:11;;;;;;;49.97;30.38;;;;;;;;;;4979210;28;20218;-67
2023/04/20 03:06:46;;;;;;;148.35;39.03;;;;;;;;;;4969106;28;20046;-71
2023/04/20 03:09:17;;;;;;;106.93;35.88;;;;;;;;;;4973077;28;20450;-67
2023/04/20 03:11:53;;;;;;;117.13;35.58;;;;;;;;;;4979837;28;20053;-68
2023/04/20 03:14:46;;;;;;;95.68;32.17;;;;;;;;;;4921783;29;20813;-70
2023/04/20 03:17:14;;;;;;;105.70;32.15;;;;;;;;;;4918525;29;20056;-70
2023/04/20 03:19:41;;;;;;;126.13;35.45;;;;;;;;;;4919322;29;20060;-68
2023/04/20 03:22:07;;;;;;;77.45;30.75;;;;;;;;;;4920529;29;20056;-68
2023/04/20 03:24:35;;;;;;;102.95;32.45;;;;;;;;;;4918051;29;20052;-67
2023/04/20 03:27:11;;;;;;;58.28;30.52;;;;;;;;;;4899221;29;20055;-69
2023/04/20 03:29:48;;;;;;;120.60;30.65;;;;;;;;;;4918047;29;20243;-67
2023/04/20 03:32:15;;;;;;;126.75;31.35;;;;;;;;;;4922881;29;20071;-67
2023/04/20 03:34:41;;;;;;;82.78;28.10;;;;;;;;;;4920806;29;20130;-69
2023/04/20 03:37:08;;;;;;;122.25;31.25;;;;;;;;;;4902638;29;20668;-68
2023/04/20 03:39:34;;;;;;;120.72;30.05;;;;;;;;;;4918840;29;20498;-69
2023/04/20 03:42:02;;;;;;;86.32;29.48;;;;;;;;;;4916478;29;20107;-68
2023/04/20 03:44:29;;;;;;;94.55;31.98;;;;;;;;;;4918714;29;20080;-67
2023/04/20 03:46:55;;;;;;;111.18;32.30;;;;;;;;;;4917310;29;20139;-69
2023/04/20 03:49:23;;;;;;;110.22;30.88;;;;;;;;;;4922358;29;20636;-68
2023/04/20 03:51:50;;;;;;;134.32;30.88;;;;;;;;;;4952140;28;20092;-68
2023/04/20 03:54:17;;;;;;;114.32;27.90;;;;;;;;;;4995469;28;20149;-67
2023/04/20 03:56:44;;;;;;;80.63;24.00;;;;;;;;;;4980173;28;20046;-70
2023/04/20 03:59:12;;;;;;;129.88;27.17;;;;;;;;;;4978347;28;20061;-69
2023/04/20 04:01:42;;;;;;;161.52;29.13;;;;;;;;;;4992406;28;20094;-66
2023/04/20 04:04:09;;;;;;;59.92;21.38;;;;;;;;;;4979909;28;20058;-68
2023/04/20 04:06:37;;;;;;;114.63;26.65;;;;;;;;;;4980765;28;20109;-67
2023/04/20 04:09:03;;;;;;;139.60;27.83;;;;;;;;;;4995172;28;20415;-66
2023/04/20 04:11:30;;;;;;;72.82;23.02;;;;;;;;;;4977771;28;20599;-67
2023/04/20 04:13:58;;;;;;;100.68;24.55;;;;;;;;;;4981567;28;20129;-66
2023/04/20 04:16:24;;;;;;;135.57;27.52;;;;;;;;;;4997207;28;20047;-68
2023/04/20 04:18:52;;;;;;;127.75;25.42;;;;;;;;;;4982818;28;20129;-66
2023/04/20 04:21:19;;;;;;;117.28;25.30;;;;;;;;;;4980748;28;20081;-66
2023/04/20 04:23:56;;;;;;;66.68;19.58;;;;;;;;;;4996736;28;20054;-66
2023/04/20 04:26:30;;;;;;;96.80;21.55;;;;;;;;;;4982532;28;20134;-65
2023/04/20 04:28:58;;;;;;;125.18;25.42;;;;;;;;;;4985004;28;20250;-69
2023/04/20 04:31:25;;;;;;;103.30;23.17;;;;;;;;;;4997560;28;20133;-65
2023/04/20 04:33:55;;;;;;;155.82;28.02;;;;;;;;;;4963895;28;20058;-67
2023/04/20 04:36:40;;;;;;;121.93;25.05;;;;;;;;;;4980808;28;20141;-65
2023/04/20 04:39:11;;;;;;;107.28;23.50;;;;;;;;;;4989431;28;20062;-70
2023/04/20 04:41:44;;;;;;;105.75;23.33;;;;;;;;;;4978953;28;20074;-69
2023/04/20 04:44:20;;;;;;;112.82;23.52;;;;;;;;;;4979760;28;20053;-67
2023/04/20 04:46:47;;;;;;;143.48;26.83;;;;;;;;;;4986441;28;20054;-68
2023/04/20 04:49:13;;;;;;;112.57;23.58;;;;;;;;;;4982649;28;20109;-68
2023/04/20 04:51:40;;;;;;;125.15;24.92;;;;;;;;;;4981028;28;20055;-68
2023/04/20 04:54:07;;;;;;;126.13;25.70;;;;;;;;;;4983013;28;20064;-68
2023/04/20 04:56:33;;;;;;;70.32;19.13;;;;;;;;;;4980269;28;20078;-68
2023/04/20 04:59:00;;;;;;;115.43;24.80;;;;;;;;;;4996372;28;20069;-66
2023/04/20 05:01:26;;;;;;;149.68;27.92;;;;;;;;;;4996566;28;20062;-66
2023/04/20 05:03:53;;;;;;;113.40;25.98;;;;;;;;;;4981297;28;20432;-65
2023/04/20 05:06:20;;;;;;;109.93;25.00;;;;;;;;;;4996665;28;20109;-65
2023/04/20 05:08:47;;;;;;;120.40;25.35;;;;;;;;;;4983583;28;20142;-66
2023/04/20 05:11:13;;;;;;;62.00;22.40;;;;;;;;;;4981517;28;20046;-66
2023/04/20 05:13:40;;;;;;;114.00;25.80;;;;;;;;;;4981583;28;20129;-66
2023/04/20 05:16:06;;;;;;;105.38;25.27;;;;;;;;;;4997611;28;20080;-69
2023/04/20 05:18:33;;;;;;;71.55;23.50;;;;;;;;;;4981087;28;20046;-65
2023/04/20 05:21:00;;;;;;;92.72;25.88;;;;;;;;;;4979884;28;20043;-68
2023/04/20 05:23:27;;;;;;;109.97;26.52;;;;;;;;;;4978055;28;20574;-68
2023/04/20 05:25:53;;;;;;;90.07;25.40;;;;;;;;;;4983007;28;20097;-65
2023/04/20 05:28:20;;;;;;;85.32;24.08;;;;;;;;;;4980418;28;20484;-68
2023/04/20 05:30:46;;;;;;;147.98;30.15;;;;;;;;;;4982005;28;20069;-67
2023/04/20 05:33:13;;;;;;;73.13;22.42;;;;;;;;;;4996427;28;20057;-67
2023/04/20 05:35:40;;;;;;;83.90;23.42;;;;;;;;;;4981770;28;20034;-65
2023/04/20 05:38:06;;;;;;;71.20;21.95;;;;;;;;;;4979421;28;20051;-66
2023/04/20 05:40:36;;;;;;;92.55;25.67;;;;;;;;;;4982376;28;20043;-64
2023/04/20 05:43:02;;;;;;;85.20;22.83;;;;;;;;;;4981755;28;20117;-65
2023/04/20 05:45:29;;;;;;;104.57;24.95;;;;;;;;;;4980891;28;20554;-66
2023/04/20 05:47:56;;;;;;;101.50;22.58;;;;;;;;;;4983104;28;20046;-66
2023/04/20 05:50:23;;;;;;;105.03;21.00;;;;;;;;;;4975442;28;20047;-67
2023/04/20 05:52:50;;;;;;;90.93;18.42;;;;;;;;;;4983809;28;20177;-67
2023/04/20 05:55:17;;;;;;;139.07;21.42;;;;;;;;;;4977935;28;20475;-65
2023/04/20 05:57:47;;;;;;;132.00;20.58;;;;;;;;;;4994944;28;20054;-65
2023/04/20 06:00:14;;;;;;;93.72;15.20;;;;;;;;;;4979227;28;20522;-66
2023/04/20 06:02:41;;;;;;;100.20;16.58;;;;;;;;;;4979396;28;20051;-65
2023/04/20 06:05:09;;;;;;;55.30;12.18;;;;;;;;;;4976598;28;20042;-68
2023/04/20 06:07:36;;;;;;;113.85;17.05;;;;;;;;;;4978296;28;20414;-66
2023/04/20 06:10:03;;;;;;;93.07;14.40;;;;;;;;;;4976305;28;20046;-66
2023/04/20 06:12:30;;;;;;;66.20;12.85;;;;;;;;;;4979051;28;20051;-66
2023/04/20 06:14:57;;;;;;;112.18;16.23;;;;;;;;;;4978614;28;20049;-67
2023/04/20 06:17:24;;;;;;;122.47;19.95;;;;;;;;;;4978825;28;20433;-66
2023/04/20 06:19:50;;;;;;;136.05;98.03;;;;;;;;;;4978993;28;20039;-68
2023/04/20 06:22:17;;;;;;;635.60;581.75;;;;;;;;;;4980286;28;20050;-67
2023/04/20 06:24:44;;;;;;;761.92;691.45;;;;;;;;;;4980932;28;20109;-65
2023/04/20 06:27:10;;;;;;;828.70;751.58;;;;;;;;;;4982163;28;20051;-67
2023/04/20 06:29:37;;;;;;;821.67;752.97;;;;;;;;;;4976873;28;20460;-66
2023/04/20 06:32:04;;;;;;;826.30;756.38;;;;;;;;;;4977967;28;20451;-62
2023/04/20 06:34:30;;;;;;;729.22;672.38;;;;;;;;;;4981424;28;20053;-67
2023/04/20 06:36:57;;;;;;;741.42;680.42;;;;;;;;;;4976888;28;20046;-63
2023/04/20 06:39:23;;;;;;;744.38;683.22;;;;;;;;;;4975887;28;20039;-65
2023/04/20 06:41:50;;;;;;;714.22;656.97;;;;;;;;;;4984421;28;20384;-65
2023/04/20 06:44:20;;;;;;;707.67;651.40;;;;;;;;;;4994644;28;20446;-66
2023/04/20 06:46:46;;;;;;;704.60;647.53;;;;;;;;;;4980758;28;20101;-66
2023/04/20 06:49:13;;;;;;;699.05;642.40;;;;;;;;;;4993507;28;20046;-66
2023/04/20 06:51:39;;;;;;;666.88;611.13;;;;;;;;;;4978893;28;20050;-66
2023/04/20 06:54:06;;;;;;;670.17;614.75;;;;;;;;;;4979405;28;20427;-66
2023/04/20 06:56:32;;;;;;;659.05;607.38;;;;;;;;;;4973952;28;20100;-66
2023/04/20 06:59:01;;;;;;;678.60;622.45;;;;;;;;;;4984114;28;20034;-66
2023/04/20 07:01:27;;;;;;;704.22;643.45;;;;;;;;;;4981707;28;20407;-67
2023/04/20 07:03:54;;;;;;;684.42;626.95;;;;;;;;;;4995301;28;20129;-65
2023/04/20 07:06:21;;;;;;;680.33;625.20;;;;;;;;;;4979188;28;20110;-67
2023/04/20 07:08:47;;;;;;;679.50;621.60;;;;;;;;;;4977685;28;20335;-67
2023/04/20 07:11:14;;;;;;;675.70;622.08;;;;;;;;;;4977262;28;20047;-66
2023/04/20 07:13:40;;;;;;;696.25;638.22;;;;;;;;;;4975337;28;20122;-66
2023/04/20 07:16:08;;;;;;;690.92;633.10;;;;;;;;;;4974939;28;20058;-66
2023/04/20 07:18:35;;;;;;;677.10;621.88;;;;;;;;;;4974527;28;20050;-65
2023/04/20 07:21:02;;;;;;;698.67;641.70;;;;;;;;;;4983137;28;20051;-66
2023/04/20 07:23:28;;;;;;;709.08;647.42;;;;;;;;;;4978206;28;20047;-67
2023/04/20 07:25:55;;;;;;;697.92;642.92;;;;;;;;;;4978395;28;20066;-66
2023/04/20 07:28:21;;;;;;;698.40;640.70;;;;;;;;;;4978490;28;20508;-66
2023/04/20 07:30:48;;;;;;;718.47;656.80;;;;;;;;;;4978234;28;20038;-65
2023/04/20 07:33:15;;;;;;;668.78;613.25;;;;;;;;;;4977367;28;20050;-67
2023/04/20 07:35:46;;;;;;;666.33;610.65;;;;;;;;;;4979358;28;20038;-67
2023/04/20 07:38:12;;;;;;;639.50;586.15;;;;;;;;;;4979441;28;20519;-66
2023/04/20 07:40:39;;;;;;;639.40;587.65;;;;;;;;;;4978544;28;20456;-68
2023/04/20 07:43:06;;;;;;;625.70;571.92;;;;;;;;;;4976648;28;20438;-65
2023/04/20 07:45:33;;;;;;;618.95;566.95;;;;;;;;;;4979527;28;20057;-66
2023/04/20 07:48:01;;;;;;;574.05;529.95;;;;;;;;;;4977340;28;20104;-66
2023/04/20 07:50:28;;;;;;;621.10;568.10;;;;;;;;;;4993196;28;20102;-58
2023/04/20 07:52:54;;;;;;;606.97;555.45;;;;;;;;;;4977721;28;20125;-62
2023/04/20 07:55:21;;;;;;;641.33;582.38;;;;;;;;;;4980506;28;20041;-64
2023/04/20 07:57:47;;;;;;;625.50;572.92;;;;;;;;;;4979980;28;20059;-63
2023/04/20 08:00:15;;;;;;;615.50;561.60;;;;;;;;;;4980865;28;20050;-64
2023/04/20 08:02:44;;;;;;;609.22;560.28;;;;;;;;;;4977482;28;20138;-63
2023/04/20 08:05:10;;;;;;;622.00;568.92;;;;;;;;;;4976769;28;20795;-64
2023/04/20 08:07:37;;;;;;;610.35;553.45;;;;;;;;;;4992838;28;20080;-62
2023/04/20 08:10:05;;;;;;;581.20;534.78;;;;;;;;;;4982072;28;20129;-63
2023/04/20 08:12:32;;;;;;;594.15;545.20;;;;;;;;;;4977367;28;20046;-64
2023/04/20 08:15:00;;;;;;;625.70;570.45;;;;;;;;;;4979301;28;20573;-63
2023/04/20 08:17:27;;;;;;;587.83;538.22;;;;;;;;;;4976007;28;20058;-63
2023/04/20 08:19:54;;;;;;;600.00;549.75;;;;;;;;;;4980939;28;20053;-63
2023/04/20 08:22:20;;;;;;;600.40;548.03;;;;;;;;;;4975264;28;20411;-64
2023/04/20 08:24:47;;;;;;;584.70;535.28;;;;;;;;;;4978221;28;20046;-64
2023/04/20 08:27:13;;;;;;;579.85;530.80;;;;;;;;;;4978120;28;20039;-65
2023/04/20 08:29:40;;;;;;;586.70;536.28;;;;;;;;;;4979352;28;20078;-65
2023/04/20 08:32:07;;;;;;;574.30;529.58;;;;;;;;;;4979301;28;20054;-65
2023/04/20 08:34:34;;;;;;;586.40;536.90;;;;;;;;;;4976210;28;20439;-66
2023/04/20 08:37:01;;;;;;;595.63;543.95;;;;;;;;;;4978075;28;20058;-66
2023/04/20 08:39:29;;;;;;;598.00;550.85;;;;;;;;;;4993928;28;20051;-63
2023/04/20 08:41:56;;;;;;;598.60;549.65;;;;;;;;;;4962233;28;20052;-65
2023/04/20 08:44:23;;;;;;;612.88;562.08;;;;;;;;;;4976272;28;20053;-67
2023/04/20 08:46:50;;;;;;;609.53;557.47;;;;;;;;;;4993622;28;20554;-62
2023/04/20 08:49:17;;;;;;;627.97;573.70;;;;;;;;;;4978602;28;20635;-63
2023/04/20 08:51:45;;;;;;;643.88;588.47;;;;;;;;;;4975640;28;20057;-65
2023/04/20 08:54:11;;;;;;;638.00;586.65;;;;;;;;;;4981262;28;20463;-63
2023/04/20 08:59:35;;;;;;;720.63;659.22;;;;;;;;;;4934132;28;20094;-67
2023/04/20 09:02:11;;;;;;;727.42;664.33;;;;;;;;;;4941691;28;20059;-69
2023/04/20 09:04:38;;;;;;;717.50;657.50;;;;;;;;;;4940774;29;20543;-69
2023/04/20 09:07:06;;;;;;;709.78;652.25;;;;;;;;;;4943674;29;20526;-70
2023/04/20 09:09:32;;;;;;;717.88;658.13;;;;;;;;;;4941726;29;20047;-68
2023/04/20 09:12:01;;;;;;;698.58;641.03;;;;;;;;;;4948205;29;20454;-65
2023/04/20 09:14:28;;;;;;;712.70;652.47;;;;;;;;;;4942144;29;20067;-64
2023/04/20 09:16:59;;;;;;;715.15;652.78;;;;;;;;;;4944362;28;20046;-67
2023/04/20 09:19:27;;;;;;;701.08;642.70;;;;;;;;;;4942624;29;20044;-65
2023/04/20 09:21:55;;;;;;;724.95;659.92;;;;;;;;;;4942397;29;20454;-68
2023/04/20 09:24:22;;;;;;;727.55;664.72;;;;;;;;;;4956840;28;20482;-68
2023/04/20 09:26:49;;;;;;;717.63;660.95;;;;;;;;;;4941774;28;20047;-67
2023/04/20 09:29:17;;;;;;;735.67;673.47;;;;;;;;;;4944127;29;20118;-69
2023/04/20 09:31:44;;;;;;;735.17;672.58;;;;;;;;;;4942554;29;20075;-65
2023/04/20 09:34:11;;;;;;;718.80;660.67;;;;;;;;;;4941278;29;20606;-68
2023/04/20 09:36:38;;;;;;;721.88;663.92;;;;;;;;;;4942813;29;20525;-70
2023/04/20 09:39:08;;;;;;;738.83;674.95;;;;;;;;;;4924448;29;20078;-70
2023/04/20 09:41:35;;;;;;;716.47;659.22;;;;;;;;;;4943886;29;20050;-67
2023/04/20 09:44:02;;;;;;;719.47;662.28;;;;;;;;;;4941675;29;20058;-65
2023/04/20 09:46:32;;;;;;;746.85;683.78;;;;;;;;;;4958670;28;20075;-65
2023/04/20 09:49:00;;;;;;;738.25;677.17;;;;;;;;;;4943688;29;20062;-67
2023/04/20 09:51:27;;;;;;;736.28;678.33;;;;;;;;;;4945203;29;20679;-70
2023/04/20 09:53:57;;;;;;;760.25;696.92;;;;;;;;;;4945534;29;20047;-65
2023/04/20 09:56:24;;;;;;;745.80;686.05;;;;;;;;;;4941559;29;20736;-68
2023/04/20 09:58:52;;;;;;;779.72;714.53;;;;;;;;;;4970234;28;20071;-66
2023/04/20 10:01:19;;;;;;;787.80;723.15;;;;;;;;;;4962540;28;20042;-70
2023/04/20 10:03:45;;;;;;;784.45;721.63;;;;;;;;;;4959730;28;20142;-70
2023/04/20 10:06:19;;;;;;;776.40;714.85;;;;;;;;;;4975117;28;20074;-68
2023/04/20 10:08:47;;;;;;;792.30;726.53;;;;;;;;;;4965148;28;20054;-66
2023/04/20 10:11:34;;;;;;;762.35;702.40;;;;;;;;;;4978046;28;20555;-65
2023/04/20 10:14:18;;;;;;;;;;;;;;;;;;4965268;28;20047;-67
2023/04/20 10:16:45;;;;;;;790.95;726.10;;;;;;;;;;4960144;28;20011;-66
2023/04/20 10:19:12;;;;;;;784.83;721.22;;;;;;;;;;4963199;28;20057;-65
2023/04/20 10:21:46;;;;;;;802.47;738.55;;;;;;;;;;4976940;28;20519;-74
2023/04/20 10:24:13;;;;;;;797.67;734.22;;;;;;;;;;4960601;28;20047;-70
2023/04/20 10:26:46;;;;;;;792.58;727.63;;;;;;;;;;4963347;28;20408;-70
2023/04/20 10:29:12;;;;;;;;;;;;;;;;;;4979577;28;20076;-69
2023/04/20 10:31:40;;;;;;;794.70;727.55;;;;;;;;;;4961678;28;19925;-71
2023/04/20 10:34:07;;;;;;;794.38;732.05;;;;;;;;;;4974087;28;20043;-66
2023/04/20 10:36:36;;;;;;;790.55;726.40;;;;;;;;;;4961443;28;20057;-68
2023/04/20 10:39:19;;;;;;;780.30;717.33;;;;;;;;;;4961538;28;20062;-64
2023/04/20 10:41:53;;;;;;;792.05;729.88;;;;;;;;;;4955362;28;20074;-65
2023/04/20 10:44:20;;;;;;;791.28;726.08;;;;;;;;;;4976989;28;20122;-67
2023/04/20 10:46:47;;;;;;;799.03;736.67;;;;;;;;;;4959481;28;20065;-66
2023/04/20 10:49:14;;;;;;;785.00;720.45;;;;;;;;;;4961153;28;20065;-67
2023/04/20 10:51:48;;;;;;;784.30;720.47;;;;;;;;;;4976111;28;20150;-70
2023/04/20 10:54:15;;;;;;;833.05;767.38;;;;;;;;;;4963607;28;20729;-65
2023/04/20 10:56:50;;;;;;;774.63;711.72;;;;;;;;;;4962420;28;20042;-67
2023/04/20 10:59:20;;;;;;;805.03;740.47;;;;;;;;;;4972950;28;20464;-66
2023/04/20 11:01:47;;;;;;;796.40;728.20;;;;;;;;;;4961101;28;20075;-65
2023/04/20 11:04:14;;;;;;;787.35;723.65;;;;;;;;;;4965980;28;20053;-66
2023/04/20 11:06:46;;;;;;;807.17;742.42;;;;;;;;;;4962203;28;20122;-64
2023/04/20 11:09:21;;;;;;;805.20;739.63;;;;;;;;;;4978563;28;20051;-65
2023/04/20 11:11:58;;;;;;;794.50;727.72;;;;;;;;;;4964176;28;20041;-65
2023/04/20 11:14:25;;;;;;;791.17;727.47;;;;;;;;;;4957047;28;20062;-66
2023/04/20 11:16:52;;;;;;;818.47;749.83;;;;;;;;;;4960423;28;20131;-65
2023/04/20 11:19:25;;;;;;;807.47;742.85;;;;;;;;;;4962193;28;20126;-64
2023/04/20 11:21:52;;;;;;;;;;;;;;;;;;4960332;28;20488;-66
2023/04/20 11:24:25;;;;;;;792.22;728.03;;;;;;;;;;4975358;28;19926;-65
2023/04/20 11:26:56;;;;;;;825.88;759.05;;;;;;;;;;4977946;28;20043;-64
2023/04/20 11:29:37;;;;;;;833.33;761.05;;;;;;;;;;4959682;28;20035;-64
2023/04/20 11:32:08;;;;;;;837.85;771.33;;;;;;;;;;4975091;28;20050;-64
2023/04/20 11:34:36;;;;;;;843.95;773.30;;;;;;;;;;4974516;28;20061;-65
2023/04/20 11:37:03;;;;;;;849.13;779.38;;;;;;;;;;4975126;28;20130;-63
2023/04/20 11:39:30;;;;;;;842.00;772.72;;;;;;;;;;4958060;28;20067;-63
2023/04/20 11:41:57;;;;;;;851.67;779.35;;;;;;;;;;4975937;28;20122;-63
2023/04/20 11:44:24;;;;;;;863.75;791.25;;;;;;;;;;4962387;28;20117;-66
2023/04/20 11:46:53;;;;;;;871.33;798.95;;;;;;;;;;4974684;28;20035;-66
2023/04/20 11:49:20;;;;;;;865.60;792.33;;;;;;;;;;4974174;28;20051;-67
2023/04/20 11:51:46;;;;;;;865.08;789.83;;;;;;;;;;4959623;28;20050;-66
2023/04/20 11:54:13;;;;;;;862.00;791.72;;;;;;;;;;4962124;28;20058;-66
2023/04/20 11:56:43;;;;;;;867.10;794.85;;;;;;;;;;4975241;28;20039;-69
2023/04/20 11:59:10;;;;;;;871.80;800.30;;;;;;;;;;4972009;28;20449;-67
2023/04/20 12:01:37;;;;;;;888.17;807.88;;;;;;;;;;4956382;28;20151;-65
2023/04/20 12:04:04;;;;;;;900.95;814.78;;;;;;;;;;4979546;28;20369;-67
2023/04/20 12:06:31;;;;;;;893.38;812.15;;;;;;;;;;4966441;28;20130;-68
2023/04/20 12:08:58;;;;;;;878.25;802.47;;;;;;;;;;4975262;28;20138;-71
2023/04/20 12:11:24;;;;;;;890.35;804.33;;;;;;;;;;4953189;28;20472;-67
2023/04/20 12:13:52;;;;;;;873.83;793.55;;;;;;;;;;4961185;28;20070;-66
2023/04/20 12:16:19;;;;;;;872.03;796.00;;;;;;;;;;4972883;28;20050;-69
2023/04/20 12:18:45;;;;;;;891.50;809.55;;;;;;;;;;4957757;28;20047;-69
2023/04/20 12:21:12;;;;;;;882.70;804.55;;;;;;;;;;4976730;28;20129;-64
2023/04/20 12:23:39;;;;;;;896.38;812.88;;;;;;;;;;4951409;28;20043;-67
2023/04/20 12:26:06;;;;;;;892.45;815.25;;;;;;;;;;4976169;28;20058;-73
2023/04/20 12:28:32;;;;;;;904.70;826.40;;;;;;;;;;4974158;28;20051;-64
2023/04/20 12:30:59;;;;;;;919.40;839.83;;;;;;;;;;4974418;28;20482;-64
2023/04/20 12:33:25;;;;;;;923.90;841.33;;;;;;;;;;4959208;28;20134;-65
2023/04/20 12:35:52;;;;;;;915.15;834.90;;;;;;;;;;4963275;28;20146;-65
2023/04/20 12:38:19;;;;;;;904.80;826.47;;;;;;;;;;4964810;28;20051;-65
2023/04/20 12:40:45;;;;;;;904.47;825.75;;;;;;;;;;4964776;28;20379;-64
2023/04/20 12:43:12;;;;;;;911.97;828.50;;;;;;;;;;4979585;28;20457;-63
2023/04/20 12:45:38;;;;;;;897.13;818.47;;;;;;;;;;4963814;28;20051;-63
2023/04/20 12:48:05;;;;;;;881.00;804.92;;;;;;;;;;4965590;28;20051;-60
2023/04/20 12:50:32;;;;;;;879.33;801.95;;;;;;;;;;4964174;28;20058;-64
2023/04/20 12:52:58;;;;;;;870.65;797.10;;;;;;;;;;4966980;28;20085;-64
2023/04/20 12:55:25;;;;;;;880.22;799.63;;;;;;;;;;4964983;28;20053;-61
2023/04/20 12:57:51;;;;;;;863.58;784.33;;;;;;;;;;4962998;28;20669;-64
2023/04/20 13:00:18;;;;;;;856.83;782.45;;;;;;;;;;4967500;28;20062;-61
2023/04/20 13:02:45;;;;;;;858.25;782.63;;;;;;;;;;4979238;28;20540;-64
2023/04/20 13:05:11;;;;;;;867.08;786.03;;;;;;;;;;4967397;28;20133;-61
2023/04/20 13:07:38;;;;;;;863.28;786.10;;;;;;;;;;4980172;28;20074;-62
2023/04/20 13:10:05;;;;;;;872.13;794.53;;;;;;;;;;4963651;28;20047;-61
2023/04/20 13:12:31;;;;;;;871.45;795.58;;;;;;;;;;4977321;28;20047;-63
2023/04/20 13:14:58;;;;;;;892.00;813.42;;;;;;;;;;4962526;28;20526;-62
2023/04/20 13:17:25;;;;;;;889.88;813.15;;;;;;;;;;4967965;28;20534;-62
2023/04/20 13:19:51;;;;;;;893.17;814.92;;;;;;;;;;4963442;28;20047;-61
2023/04/20 13:22:18;;;;;;;890.55;812.65;;;;;;;;;;4961447;28;20455;-61
2023/04/20 13:24:44;;;;;;;888.72;810.47;;;;;;;;;;4977186;28;20135;-64
2023/04/20 13:27:12;;;;;;;872.33;796.08;;;;;;;;;;4977105;28;20161;-62
2023/04/20 13:29:39;;;;;;;874.80;797.78;;;;;;;;;;4978127;28;20134;-63
2023/04/20 13:32:05;;;;;;;863.90;790.72;;;;;;;;;;4960336;28;20126;-63
2023/04/20 13:34:32;;;;;;;868.97;794.60;;;;;;;;;;4964288;28;20046;-62
2023/04/20 13:36:59;;;;;;;883.90;803.92;;;;;;;;;;4962892;28;20042;-64
2023/04/20 13:39:26;;;;;;;872.95;799.83;;;;;;;;;;4965002;28;20135;-61
2023/04/20 13:41:53;;;;;;;876.10;798.05;;;;;;;;;;4978989;28;20047;-63
2023/04/20 13:44:19;;;;;;;873.28;796.08;;;;;;;;;;4975841;28;20126;-61
2023/04/20 13:46:47;;;;;;;885.88;808.95;;;;;;;;;;4977880;28;20074;-64
2023/04/20 13:49:15;;;;;;;885.00;809.90;;;;;;;;;;4960833;28;20232;-62
2023/04/20 13:51:42;;;;;;;905.33;825.97;;;;;;;;;;4963783;28;20070;-64
2023/04/20 13:54:08;;;;;;;901.20;825.65;;;;;;;;;;4962575;28;20145;-66
2023/04/20 13:56:35;;;;;;;915.78;835.28;;;;;;;;;;4963264;28;20053;-63
2023/04/20 13:59:02;;;;;;;909.33;830.45;;;;;;;;;;4963389;28;20106;-61
2023/04/20 14:01:30;;;;;;;900.30;822.60;;;;;;;;;;4960259;28;20134;-62
2023/04/20 14:03:57;;;;;;;903.70;824.05;;;;;;;;;;4963365;28;20118;-66
2023/04/20 14:06:23;;;;;;;890.67;812.50;;;;;;;;;;4976911;28;20057;-63
2023/04/20 14:08:50;;;;;;;882.42;808.10;;;;;;;;;;4962174;28;20133;-60